Decoded Metar for FALA (JOHANNESBURG in SOUTH AFRICA) (IATA:HLA) | Meteo·Mobile Aviation Weather
aviador You're here:

FALA Decoded Metar

JOHANNESBURG in SOUTH AFRICA
Report Time2019-09-15 12:00:00
UTC Time2019-09-15 12:46:56
Flight Rules vfr VFR
Wind320° at 10 kt
W.Decomp.*RWY 06: 1.4 kt HW 9.9 kt LCW
Visibility9999 m
Phenomena:N/A
Clouds:N/A
Expected CloudBase > 7,600 ft AGL from Temp-Dew spread
CeilingNone
Temp26°C (ISA +20)
Dew Point07°C (30% RH)
AAT21.7°C
QNH1024 hPa
Density Alt6,575 ft
Elevation4,518 ft
Report Wrong Elevation
Raw Report
FALA 151200Z 32010KT 290V350 CAVOK 26/07 Q1024 NOSIG=

Extra information for FALA:More info

Metar Taf Metar & Taf Last 4 Metars F.Rules Stats Wind Profile Meteogram Temp Stats Airport Information Weather charts Add Link Nearby VenuesMetar ALERT Operation Metar Decoded Social comments